createdAt,value
2023-03-02T00:00:26.699Z,4.95
2023-03-02T00:03:12.051Z,4.87
2023-03-02T00:05:57.723Z,4.93
2023-03-02T00:08:42.393Z,5.13
2023-03-02T00:11:27.252Z,5.07
2023-03-02T00:14:12.770Z,5.13
2023-03-02T00:16:56.542Z,4.79
2023-03-02T00:19:40.386Z,4.78
2023-03-02T00:22:24.134Z,4.91
2023-03-02T00:25:08.969Z,4.79
2023-03-02T00:27:52.728Z,4.59
2023-03-02T00:30:39.208Z,4.55
2023-03-02T00:33:23.081Z,4.54
2023-03-02T00:36:07.815Z,4.35
2023-03-02T00:38:53.241Z,4.55
2023-03-02T00:41:37.107Z,4.50
2023-03-02T00:44:20.941Z,4.41
2023-03-02T00:47:06.221Z,4.43
2023-03-02T00:49:50.002Z,4.45
2023-03-02T00:52:34.966Z,4.57
2023-03-02T00:55:18.879Z,4.53
2023-03-02T00:58:02.852Z,4.48
2023-03-02T01:00:47.463Z,4.17
2023-03-02T01:03:32.986Z,4.21
2023-03-02T01:06:18.728Z,4.29
2023-03-02T01:09:02.498Z,4.18
2023-03-02T01:11:46.238Z,4.29
2023-03-02T01:14:30.543Z,4.40
2023-03-02T01:17:15.823Z,4.40
2023-03-02T01:20:01.134Z,4.19
2023-03-02T01:22:46.725Z,4.18
2023-03-02T01:25:30.495Z,4.30
2023-03-02T01:28:14.270Z,4.19
2023-03-02T01:30:58.012Z,4.24
2023-03-02T01:33:41.806Z,4.28
2023-03-02T01:36:27.126Z,4.16
2023-03-02T01:39:10.881Z,4.17
2023-03-02T01:41:55.350Z,4.03
2023-03-02T01:44:43.028Z,4.09
2023-03-02T01:47:32.810Z,4.26
2023-03-02T01:50:25.982Z,4.47
2023-03-02T01:53:18.112Z,4.32
2023-03-02T01:56:04.559Z,4.33
2023-03-02T01:58:52.956Z,4.33
2023-03-02T02:01:40.891Z,4.02
2023-03-02T02:04:28.925Z,4.14
2023-03-02T02:07:12.980Z,3.97
2023-03-02T02:09:58.860Z,3.92
2023-03-02T02:12:42.639Z,4.15
2023-03-02T02:15:46.346Z,4.25
2023-03-02T02:18:30.249Z,4.09
2023-03-02T02:21:14.684Z,4.00
2023-03-02T02:24:09.583Z,4.08
2023-03-02T02:26:57.255Z,4.11
2023-03-02T02:29:46.433Z,4.11
2023-03-02T02:32:35.672Z,4.17
2023-03-02T02:35:23.008Z,4.27
2023-03-02T02:38:10.067Z,4.17
2023-03-02T02:40:57.627Z,4.27
2023-03-02T02:43:48.101Z,4.03
2023-03-02T02:46:34.257Z,4.43
2023-03-02T02:49:31.737Z,4.34
2023-03-02T02:52:18.023Z,4.33
2023-03-02T02:55:02.117Z,3.91
2023-03-02T02:57:47.544Z,4.00
2023-03-02T03:00:32.884Z,3.83
2023-03-02T03:03:30.932Z,3.97
2023-03-02T03:06:23.392Z,3.56
2023-03-02T03:09:08.296Z,3.73
2023-03-02T03:11:59.480Z,3.71
2023-03-02T03:14:43.582Z,3.85
2023-03-02T03:17:29.938Z,3.88
2023-03-02T03:20:18.752Z,3.87
2023-03-02T03:23:02.644Z,3.33
2023-03-02T03:25:48.298Z,4.18
2023-03-02T03:28:32.185Z,4.07
2023-03-02T03:31:16.515Z,4.05
2023-03-02T03:34:02.860Z,4.02
2023-03-02T03:36:50.682Z,4.19
2023-03-02T03:39:35.295Z,4.21
2023-03-02T03:42:20.274Z,4.34
2023-03-02T03:45:04.289Z,4.26
2023-03-02T03:47:50.813Z,4.20
2023-03-02T03:50:36.586Z,4.17
2023-03-02T03:53:20.550Z,4.03
2023-03-02T03:56:05.009Z,3.95
2023-03-02T03:58:48.952Z,4.36
2023-03-02T04:01:35.247Z,4.32
2023-03-02T04:04:22.597Z,4.34
2023-03-02T04:07:08.583Z,4.19
2023-03-02T04:10:03.517Z,4.05
2023-03-02T04:12:50.400Z,4.10
2023-03-02T04:15:34.420Z,4.05
2023-03-02T04:18:18.150Z,4.27
2023-03-02T04:21:02.124Z,4.28
2023-03-02T04:23:47.346Z,4.12
2023-03-02T04:26:31.512Z,4.32
2023-03-02T04:29:15.782Z,4.14
2023-03-02T04:31:59.715Z,4.12
2023-03-02T04:34:44.911Z,3.98
2023-03-02T04:37:29.025Z,3.98
2023-03-02T04:40:15.348Z,3.98
2023-03-02T04:42:59.196Z,4.11
2023-03-02T04:45:42.994Z,4.11
2023-03-02T04:48:26.817Z,4.11
2023-03-02T04:51:18.236Z,4.05
2023-03-02T04:54:04.002Z,4.18
2023-03-02T04:56:49.647Z,4.39
2023-03-02T04:59:33.600Z,4.20
2023-03-02T05:02:17.699Z,4.10
2023-03-02T05:05:01.720Z,3.97
2023-03-02T05:07:47.460Z,4.28
2023-03-02T05:10:31.354Z,4.27
2023-03-02T05:13:16.727Z,4.17
2023-03-02T05:16:00.729Z,4.22
2023-03-02T05:18:44.584Z,4.33
2023-03-02T05:21:28.776Z,4.30
2023-03-02T05:24:13.441Z,4.05
2023-03-02T05:26:57.430Z,3.90
2023-03-02T05:29:42.580Z,4.28
2023-03-02T05:32:26.449Z,4.14
2023-03-02T05:35:10.877Z,4.13
2023-03-02T05:37:54.621Z,3.95
2023-03-02T05:40:38.670Z,4.14
2023-03-02T05:43:23.589Z,3.99
2023-03-02T05:46:08.892Z,3.29
2023-03-02T05:48:52.773Z,4.06
2023-03-02T05:51:36.697Z,4.10
2023-03-02T05:54:20.541Z,4.06
2023-03-02T05:57:04.397Z,3.80
2023-03-02T05:59:48.201Z,3.78
2023-03-02T06:02:33.670Z,3.72
2023-03-02T06:05:19.724Z,3.85
2023-03-02T06:08:04.034Z,3.85
2023-03-02T06:10:48.180Z,3.64
2023-03-02T06:13:31.952Z,3.88
2023-03-02T06:16:15.922Z,4.04
2023-03-02T06:19:01.149Z,3.81
2023-03-02T06:21:45.021Z,3.99
2023-03-02T06:24:28.884Z,3.93
2023-03-02T06:27:13.848Z,4.45
2023-03-02T06:29:57.753Z,4.02
2023-03-02T06:32:42.052Z,4.25
2023-03-02T06:35:27.723Z,4.41
2023-03-02T06:38:11.690Z,4.78
2023-03-02T06:40:55.742Z,5.07
2023-03-02T06:43:39.679Z,5.61
2023-03-02T06:46:23.635Z,5.82
2023-03-02T06:49:07.910Z,5.90
2023-03-02T06:51:53.113Z,6.70
2023-03-02T06:54:36.853Z,6.43
2023-03-02T06:57:20.825Z,6.04
2023-03-02T07:00:10.173Z,6.51
2023-03-02T07:02:54.438Z,7.45
2023-03-02T07:05:38.359Z,7.80
2023-03-02T07:08:23.661Z,7.80
2023-03-02T07:11:08.014Z,6.96
2023-03-02T07:13:52.264Z,6.92
2023-03-02T07:16:36.346Z,6.31
2023-03-02T07:19:20.361Z,6.63
2023-03-02T07:22:04.092Z,7.28
2023-03-02T07:24:49.343Z,6.97
2023-03-02T07:27:33.251Z,7.28
2023-03-02T07:30:21.125Z,5.89
2023-03-02T07:33:05.053Z,6.31
2023-03-02T07:35:49.948Z,6.13
2023-03-02T07:38:34.377Z,6.20
2023-03-02T07:41:19.782Z,6.06
2023-03-02T07:44:03.646Z,6.18
2023-03-02T07:46:47.629Z,7.10
2023-03-02T07:49:31.646Z,7.25
2023-03-02T07:52:15.404Z,7.56
2023-03-02T07:54:59.170Z,7.77
2023-03-02T07:57:44.887Z,6.64
2023-03-02T08:00:29.029Z,6.52
2023-03-02T08:03:12.965Z,6.85
2023-03-02T08:05:56.858Z,6.37
2023-03-02T08:08:41.029Z,6.74
2023-03-02T08:11:24.932Z,7.47
2023-03-02T08:14:10.355Z,7.10
2023-03-02T08:16:54.272Z,7.15
2023-03-02T08:19:38.125Z,6.63
2023-03-02T08:22:22.024Z,6.36
2023-03-02T08:25:07.381Z,6.71
2023-03-02T08:27:51.232Z,7.10
2023-03-02T08:30:36.403Z,6.47
2023-03-02T08:33:20.176Z,6.33
2023-03-02T08:36:05.936Z,6.50
2023-03-02T08:38:50.741Z,6.57
2023-03-02T08:41:35.340Z,6.42
2023-03-02T08:44:21.147Z,6.01
2023-03-02T08:47:06.857Z,6.30
2023-03-02T08:49:51.385Z,6.84
2023-03-02T08:52:35.824Z,6.87
2023-03-02T08:55:19.743Z,6.16
2023-03-02T08:58:03.652Z,6.43
2023-03-02T09:00:47.596Z,7.19
2023-03-02T09:03:32.867Z,7.74
2023-03-02T09:06:16.964Z,7.34
2023-03-02T09:09:01.428Z,7.32
2023-03-02T09:11:46.555Z,7.37
2023-03-02T09:14:30.476Z,7.19
2023-03-02T09:17:15.691Z,6.85
2023-03-02T09:20:00.971Z,7.04
2023-03-02T09:22:48.682Z,7.05
2023-03-02T09:25:32.582Z,6.69
2023-03-02T09:28:17.082Z,6.69
2023-03-02T09:31:02.748Z,7.16
2023-03-02T09:33:46.708Z,7.73
2023-03-02T09:36:32.854Z,8.01
2023-03-02T09:39:16.681Z,8.44
2023-03-02T09:42:19.911Z,8.01
2023-03-02T09:45:16.848Z,7.40
2023-03-02T09:48:12.357Z,7.01
2023-03-02T09:51:08.837Z,7.52
2023-03-02T09:54:01.819Z,7.83
2023-03-02T09:56:48.181Z,8.77
2023-03-02T09:59:39.652Z,9.06
2023-03-02T10:02:28.547Z,9.21
2023-03-02T10:05:17.609Z,9.08
2023-03-02T10:08:02.017Z,9.33
2023-03-02T10:10:50.523Z,9.59
2023-03-02T10:13:42.299Z,9.20
2023-03-02T10:16:33.018Z,8.95
2023-03-02T10:19:25.171Z,10.46
2023-03-02T10:22:17.411Z,9.31
2023-03-02T10:25:18.181Z,10.43
2023-03-02T10:28:17.385Z,9.38
2023-03-02T10:31:09.370Z,10.48
2023-03-02T10:33:53.432Z,9.92
2023-03-02T10:36:40.974Z,10.11
2023-03-02T10:39:25.167Z,11.49
2023-03-02T10:42:16.455Z,10.28
2023-03-02T10:45:10.032Z,10.32
2023-03-02T10:48:02.274Z,10.26
2023-03-02T10:50:46.262Z,10.36
2023-03-02T10:53:30.496Z,9.95
2023-03-02T10:56:22.040Z,10.22
2023-03-02T10:59:28.642Z,11.03
2023-03-02T11:02:23.683Z,10.19
2023-03-02T11:05:25.060Z,10.46
2023-03-02T11:08:11.954Z,11.50
2023-03-02T11:11:00.650Z,10.49
2023-03-02T11:13:45.837Z,11.17
2023-03-02T11:16:33.741Z,11.16
2023-03-02T11:19:27.049Z,10.21
2023-03-02T11:22:26.655Z,9.94
2023-03-02T11:25:17.759Z,9.56
2023-03-02T11:28:11.198Z,9.76
2023-03-02T11:30:59.092Z,9.98
2023-03-02T11:33:49.181Z,9.55
2023-03-02T11:36:45.795Z,10.15
2023-03-02T11:39:46.558Z,10.25
2023-03-02T11:42:41.217Z,10.13
2023-03-02T11:45:27.977Z,11.02
2023-03-02T11:48:23.421Z,10.17
2023-03-02T11:51:13.465Z,10.39
2023-03-02T11:54:02.901Z,9.44
2023-03-02T11:56:46.986Z,9.52
2023-03-02T11:59:33.510Z,9.09
2023-03-02T12:02:18.349Z,8.95
2023-03-02T12:05:05.099Z,9.17
2023-03-02T12:07:58.526Z,9.06
2023-03-02T12:10:45.647Z,9.05
2023-03-02T12:13:31.730Z,9.29
2023-03-02T12:16:23.714Z,8.60
2023-03-02T12:19:15.722Z,8.86
2023-03-02T12:22:02.330Z,8.97
2023-03-02T12:24:46.571Z,8.85
2023-03-02T12:27:37.299Z,8.94
2023-03-02T12:30:26.978Z,8.98
2023-03-02T12:33:21.463Z,9.08
2023-03-02T12:36:13.298Z,8.93
2023-03-02T12:39:16.832Z,8.77
2023-03-02T12:42:17.842Z,8.37
2023-03-02T12:45:15.991Z,8.57
2023-03-02T12:48:04.309Z,8.85
2023-03-02T12:50:49.436Z,8.75
2023-03-02T12:53:34.114Z,8.87
2023-03-02T12:56:25.398Z,8.76
2023-03-02T12:59:20.791Z,9.07
2023-03-02T13:02:18.338Z,8.88
2023-03-02T13:05:04.521Z,9.00
2023-03-02T13:07:57.261Z,8.97
2023-03-02T13:10:43.438Z,8.90
2023-03-02T13:13:29.811Z,9.37
2023-03-02T13:16:22.581Z,9.28
2023-03-02T13:19:16.758Z,9.12
2023-03-02T13:22:01.328Z,8.93
2023-03-02T13:24:48.373Z,8.85
2023-03-02T13:27:34.185Z,8.99
2023-03-02T13:30:25.389Z,8.91
2023-03-02T13:33:22.557Z,8.60
2023-03-02T13:36:08.807Z,9.15
2023-03-02T13:38:55.166Z,8.80
2023-03-02T13:41:40.792Z,9.29
2023-03-02T13:44:29.695Z,9.84
2023-03-02T13:47:24.054Z,9.36
2023-03-02T13:50:10.380Z,9.18
2023-03-02T13:52:57.891Z,9.41
2023-03-02T13:55:41.777Z,9.67
2023-03-02T13:58:26.696Z,9.46
2023-03-02T14:01:13.102Z,10.05
2023-03-02T14:03:57.472Z,9.44
2023-03-02T14:06:41.693Z,9.57
2023-03-02T14:09:27.852Z,10.20
2023-03-02T14:12:22.199Z,9.14
2023-03-02T14:15:07.222Z,9.10
2023-03-02T14:17:51.028Z,9.11
2023-03-02T14:20:34.778Z,8.70
2023-03-02T14:23:18.553Z,8.50
2023-03-02T14:26:18.362Z,8.60
2023-03-02T14:29:06.327Z,7.70
2023-03-02T14:31:50.330Z,8.33
2023-03-02T14:34:36.992Z,8.19
2023-03-02T14:37:26.047Z,8.38
2023-03-02T14:40:17.652Z,8.40
2023-03-02T14:43:02.927Z,8.52
2023-03-02T14:45:47.006Z,8.23
2023-03-02T14:48:30.829Z,8.15
2023-03-02T14:51:23.197Z,8.08
2023-03-02T14:54:09.659Z,8.50
2023-03-02T14:56:54.795Z,8.47
2023-03-02T14:59:40.475Z,8.25
2023-03-02T15:02:27.014Z,8.11
2023-03-02T15:05:11.235Z,7.93
2023-03-02T15:07:58.684Z,7.94
2023-03-02T15:10:43.771Z,7.76
2023-03-02T15:13:27.884Z,7.85
2023-03-02T15:16:13.900Z,7.65
2023-03-02T15:18:58.987Z,7.40
2023-03-02T15:21:45.561Z,7.37
2023-03-02T15:24:32.077Z,7.55
2023-03-02T15:27:17.252Z,6.97
2023-03-02T15:30:01.115Z,7.08
2023-03-02T15:32:46.393Z,7.11
2023-03-02T15:35:30.325Z,7.13
2023-03-02T15:38:14.219Z,7.27
2023-03-02T15:40:58.086Z,6.86
2023-03-02T15:43:42.247Z,7.13
2023-03-02T15:46:26.964Z,7.32
2023-03-02T15:49:12.353Z,7.28
2023-03-02T15:51:58.419Z,7.50
2023-03-02T15:54:42.433Z,7.49
2023-03-02T15:57:26.572Z,6.95
2023-03-02T16:00:13.606Z,6.63
2023-03-02T16:02:57.583Z,6.67
2023-03-02T16:05:43.377Z,6.79
2023-03-02T16:08:27.496Z,7.16
2023-03-02T16:11:12.577Z,6.73
2023-03-02T16:13:56.604Z,6.49
2023-03-02T16:16:40.502Z,6.58
2023-03-02T16:19:24.345Z,6.47
2023-03-02T16:22:09.621Z,6.28
2023-03-02T16:24:53.418Z,6.14
2023-03-02T16:27:37.264Z,6.26
2023-03-02T16:30:23.277Z,6.36
2023-03-02T16:33:09.973Z,6.15
2023-03-02T16:35:53.809Z,6.01
2023-03-02T16:38:39.790Z,6.01
2023-03-02T16:41:24.941Z,5.94
2023-03-02T16:44:08.912Z,5.81
2023-03-02T16:46:54.059Z,5.80
2023-03-02T16:49:39.090Z,5.80
2023-03-02T16:52:23.041Z,6.07
2023-03-02T16:55:13.126Z,5.83
2023-03-02T16:57:56.992Z,6.00
2023-03-02T17:00:42.641Z,6.19
2023-03-02T17:03:26.570Z,5.91
2023-03-02T17:06:12.209Z,5.96
2023-03-02T17:08:56.032Z,5.85
2023-03-02T17:11:41.530Z,5.91
2023-03-02T17:14:25.484Z,5.98
2023-03-02T17:17:09.698Z,5.96
2023-03-02T17:19:53.508Z,5.85
2023-03-02T17:22:37.466Z,5.82
2023-03-02T17:25:22.192Z,5.87
2023-03-02T17:28:07.721Z,5.64
2023-03-02T17:30:51.687Z,5.87
2023-03-02T17:33:35.697Z,5.66
2023-03-02T17:36:19.494Z,6.06
2023-03-02T17:39:03.411Z,5.56
2023-03-02T17:41:47.408Z,5.59
2023-03-02T17:44:34.738Z,5.49
2023-03-02T17:47:19.233Z,5.64
2023-03-02T17:50:05.680Z,5.58
2023-03-02T17:52:49.831Z,5.52
2023-03-02T17:55:34.556Z,5.64
2023-03-02T17:58:18.902Z,5.74
2023-03-02T18:01:04.581Z,5.71
2023-03-02T18:03:48.704Z,5.46
2023-03-02T18:06:32.564Z,5.48
2023-03-02T18:09:16.504Z,5.41
2023-03-02T18:12:01.218Z,5.49
2023-03-02T18:14:45.169Z,5.52
2023-03-02T18:17:30.329Z,5.39
2023-03-02T18:20:14.845Z,5.41
2023-03-02T18:22:58.875Z,5.39
2023-03-02T18:25:42.775Z,5.23
2023-03-02T18:28:26.650Z,5.51
2023-03-02T18:31:11.409Z,5.43
2023-03-02T18:33:56.569Z,5.43
2023-03-02T18:36:40.372Z,5.36
2023-03-02T18:39:24.135Z,5.30
2023-03-02T18:42:09.507Z,5.08
2023-03-02T18:44:54.467Z,5.36
2023-03-02T18:47:38.450Z,5.19
2023-03-02T18:50:24.082Z,5.36
2023-03-02T18:53:08.705Z,5.28
2023-03-02T18:55:55.844Z,5.49
2023-03-02T18:58:40.186Z,5.24
2023-03-02T19:01:24.030Z,5.40
2023-03-02T19:04:08.069Z,5.15
2023-03-02T19:06:53.769Z,5.27
2023-03-02T19:09:37.648Z,5.13
2023-03-02T19:12:21.677Z,5.11
2023-03-02T19:15:06.625Z,5.12
2023-03-02T19:17:52.090Z,4.92
2023-03-02T19:20:36.367Z,4.92
2023-03-02T19:23:21.814Z,5.08
2023-03-02T19:26:06.081Z,5.00
2023-03-02T19:28:50.284Z,5.23
2023-03-02T19:31:34.349Z,5.06
2023-03-02T19:34:18.716Z,4.90
2023-03-02T19:37:05.609Z,5.14
2023-03-02T19:39:51.128Z,5.10
2023-03-02T19:42:36.294Z,4.96
2023-03-02T19:45:23.379Z,4.89
2023-03-02T19:48:09.298Z,5.04
2023-03-02T19:50:53.663Z,5.03
2023-03-02T19:53:39.263Z,5.08
2023-03-02T19:56:30.102Z,5.06
2023-03-02T19:59:14.065Z,5.03
2023-03-02T20:01:59.592Z,4.78
2023-03-02T20:04:45.184Z,4.99
2023-03-02T20:07:29.499Z,5.01
2023-03-02T20:10:26.146Z,4.93
2023-03-02T20:13:12.247Z,4.95
2023-03-02T20:15:56.342Z,5.06
2023-03-02T20:18:41.620Z,5.01
2023-03-02T20:21:26.888Z,4.87
2023-03-02T20:24:11.284Z,5.03
2023-03-02T20:26:55.481Z,5.00
2023-03-02T20:29:43.336Z,3.86
2023-03-02T20:32:27.353Z,4.88
2023-03-02T20:35:13.174Z,4.82
2023-03-02T20:37:58.841Z,5.10
2023-03-02T20:40:43.267Z,4.82
2023-03-02T20:43:27.799Z,4.77
2023-03-02T20:46:18.540Z,4.84
2023-03-02T20:49:02.692Z,4.94
2023-03-02T20:51:52.907Z,4.97
2023-03-02T20:54:40.231Z,5.08
2023-03-02T20:57:24.451Z,4.84
2023-03-02T21:00:11.929Z,5.00
2023-03-02T21:02:59.414Z,4.92
2023-03-02T21:05:44.081Z,4.80
2023-03-02T21:08:28.496Z,4.76
2023-03-02T21:11:15.915Z,4.75
2023-03-02T21:14:02.268Z,4.80
2023-03-02T21:16:46.718Z,5.14
2023-03-02T21:19:34.232Z,4.80
2023-03-02T21:22:20.781Z,4.86
2023-03-02T21:25:07.406Z,5.05
2023-03-02T21:27:51.444Z,5.16
2023-03-02T21:30:35.757Z,5.21
2023-03-02T21:33:19.627Z,4.88
2023-03-02T21:36:05.242Z,5.21
2023-03-02T21:38:49.148Z,5.09
2023-03-02T21:41:33.709Z,5.13
2023-03-02T21:44:17.963Z,5.19
2023-03-02T21:47:01.822Z,5.02
2023-03-02T21:49:45.632Z,4.87
2023-03-02T21:52:30.944Z,5.02
2023-03-02T21:55:15.726Z,4.94
2023-03-02T21:57:59.936Z,5.08
2023-03-02T22:00:45.583Z,4.98
2023-03-02T22:03:29.408Z,5.04
2023-03-02T22:06:18.437Z,5.01
2023-03-02T22:09:04.084Z,4.84
2023-03-02T22:11:48.685Z,5.17
2023-03-02T22:14:32.495Z,5.06
2023-03-02T22:17:18.675Z,5.03
2023-03-02T22:20:02.375Z,5.17
2023-03-02T22:22:47.335Z,4.97
2023-03-02T22:25:32.490Z,4.95
2023-03-02T22:28:19.075Z,4.96
2023-03-02T22:31:03.255Z,5.01
2023-03-02T22:33:47.201Z,5.28
2023-03-02T22:36:31.018Z,4.98
2023-03-02T22:39:18.584Z,5.15
2023-03-02T22:42:12.693Z,5.06
2023-03-02T22:45:02.775Z,5.06
2023-03-02T22:47:49.206Z,4.88
2023-03-02T22:50:32.992Z,4.90
2023-03-02T22:53:29.169Z,4.84
2023-03-02T22:56:27.145Z,4.53
2023-03-02T22:59:21.404Z,5.10
2023-03-02T23:02:14.261Z,5.03
2023-03-02T23:04:58.019Z,5.08
2023-03-02T23:07:41.809Z,5.00
2023-03-02T23:10:25.874Z,4.97
2023-03-02T23:13:09.956Z,5.08
2023-03-02T23:15:56.254Z,5.01
2023-03-02T23:18:40.671Z,5.07
2023-03-02T23:21:28.253Z,5.13
2023-03-02T23:24:12.468Z,5.15
2023-03-02T23:26:56.250Z,5.02
2023-03-02T23:29:40.385Z,4.86
2023-03-02T23:32:25.651Z,5.15
2023-03-02T23:35:10.233Z,5.04
2023-03-02T23:37:53.945Z,5.03
2023-03-02T23:40:37.725Z,5.04
2023-03-02T23:43:21.741Z,5.24
2023-03-02T23:46:06.218Z,5.29
2023-03-02T23:48:51.781Z,5.14
2023-03-02T23:51:35.514Z,5.18
2023-03-02T23:54:19.364Z,5.22
2023-03-02T23:57:03.200Z,5.10
2023-03-02T23:59:46.995Z,5.31
